sensor_id;sensor_type;location;lat;lon;timestamp;pressure;altitude;pressure_sealevel;temperature;humidity
11212;BME280;5663;50.864;12.096;2023-01-29T00:02:17;100620.91;;;1.36;64.60
11212;BME280;5663;50.864;12.096;2023-01-29T00:04:46;100621.72;;;1.35;64.21
11212;BME280;5663;50.864;12.096;2023-01-29T00:07:19;100620.00;;;1.31;64.18
11212;BME280;5663;50.864;12.096;2023-01-29T00:09:49;100614.00;;;1.31;64.21
11212;BME280;5663;50.864;12.096;2023-01-29T00:12:19;100611.44;;;1.29;64.37
11212;BME280;5663;50.864;12.096;2023-01-29T00:14:49;100599.47;;;1.25;64.36
11212;BME280;5663;50.864;12.096;2023-01-29T00:17:20;100598.59;;;1.23;64.15
11212;BME280;5663;50.864;12.096;2023-01-29T00:19:50;100607.97;;;1.21;64.47
11212;BME280;5663;50.864;12.096;2023-01-29T02:18:13;100540.09;;;-0.87;66.21
11212;BME280;5663;50.864;12.096;2023-01-29T02:20:49;100552.09;;;-0.81;65.97
11212;BME280;5663;50.864;12.096;2023-01-29T02:23:52;100552.88;;;-0.85;66.11
11212;BME280;5663;50.864;12.096;2023-01-29T02:26:42;100558.78;;;-0.88;66.20
11212;BME280;5663;50.864;12.096;2023-01-29T02:29:22;100551.94;;;-0.92;66.12
11212;BME280;5663;50.864;12.096;2023-01-29T02:32:14;100564.75;;;-0.90;66.43
11212;BME280;5663;50.864;12.096;2023-01-29T02:34:58;100564.69;;;-0.93;66.38
11212;BME280;5663;50.864;12.096;2023-01-29T02:37:51;100493.34;;;-1.40;66.42
11212;BME280;5663;50.864;12.096;2023-01-29T02:40:29;100547.41;;;-1.10;66.59
11212;BME280;5663;50.864;12.096;2023-01-29T02:43:07;100561.16;;;-1.02;66.67
11212;BME280;5663;50.864;12.096;2023-01-29T02:45:57;100563.69;;;-1.03;66.38
11212;BME280;5663;50.864;12.096;2023-01-29T02:48:38;100576.41;;;-1.06;66.48
11212;BME280;5663;50.864;12.096;2023-01-29T02:51:14;100573.81;;;-1.09;66.81
11212;BME280;5663;50.864;12.096;2023-01-29T02:53:51;100569.50;;;-1.12;66.70
11212;BME280;5663;50.864;12.096;2023-01-29T02:56:27;100574.59;;;-1.13;66.47
11212;BME280;5663;50.864;12.096;2023-01-29T02:59:01;100576.22;;;-1.18;66.51
11212;BME280;5663;50.864;12.096;2023-01-29T03:01:47;100572.75;;;-1.23;66.71
11212;BME280;5663;50.864;12.096;2023-01-29T03:04:21;100565.88;;;-1.26;66.66
11212;BME280;5663;50.864;12.096;2023-01-29T03:06:56;100570.09;;;-1.28;66.72
11212;BME280;5663;50.864;12.096;2023-01-29T03:09:31;100571.72;;;-1.33;66.79
11212;BME280;5663;50.864;12.096;2023-01-29T03:12:14;100568.22;;;-1.38;66.71
11212;BME280;5663;50.864;12.096;2023-01-29T03:15:01;100585.25;;;-1.37;66.95
11212;BME280;5663;50.864;12.096;2023-01-29T03:17:55;100586.09;;;-1.38;66.70
11212;BME280;5663;50.864;12.096;2023-01-29T03:20:31;100586.09;;;-1.38;66.80
11212;BME280;5663;50.864;12.096;2023-01-29T05:23:14;100479.97;;;-2.27;67.43
11212;BME280;5663;50.864;12.096;2023-01-29T05:25:45;100484.25;;;-2.26;67.54
11212;BME280;5663;50.864;12.096;2023-01-29T05:28:16;100486.81;;;-2.25;67.64
11212;BME280;5663;50.864;12.096;2023-01-29T05:30:44;100485.94;;;-2.25;67.41
11212;BME280;5663;50.864;12.096;2023-01-29T05:33:17;100406.91;;;-2.75;67.56
11212;BME280;5663;50.864;12.096;2023-01-29T05:35:47;100466.34;;;-2.28;67.43
11212;BME280;5663;50.864;12.096;2023-01-29T05:38:20;100462.09;;;-2.29;67.44
11212;BME280;5663;50.864;12.096;2023-01-29T05:40:50;100463.78;;;-2.29;67.51
11212;BME280;5663;50.864;12.096;2023-01-29T05:43:22;100468.00;;;-2.31;67.43
11212;BME280;5663;50.864;12.096;2023-01-29T05:45:53;100470.56;;;-2.31;67.40
11212;BME280;5663;50.864;12.096;2023-01-29T05:48:24;100476.50;;;-2.31;67.25
11212;BME280;5663;50.864;12.096;2023-01-29T05:50:58;100473.91;;;-2.32;67.73
11212;BME280;5663;50.864;12.096;2023-01-29T05:53:32;100482.41;;;-2.33;67.19
11212;BME280;5663;50.864;12.096;2023-01-29T05:56:03;100477.28;;;-2.35;67.62
11212;BME280;5663;50.864;12.096;2023-01-29T05:58:33;100478.16;;;-2.33;67.26
11212;BME280;5663;50.864;12.096;2023-01-29T06:01:11;100495.13;;;-2.35;67.44
11212;BME280;5663;50.864;12.096;2023-01-29T06:03:42;100485.78;;;-2.34;67.48
11212;BME280;5663;50.864;12.096;2023-01-29T06:06:12;100483.16;;;-2.39;67.61
11212;BME280;5663;50.864;12.096;2023-01-29T06:08:45;100476.38;;;-2.37;67.53
11212;BME280;5663;50.864;12.096;2023-01-29T06:11:18;100473.00;;;-2.36;67.34
11212;BME280;5663;50.864;12.096;2023-01-29T06:13:49;100474.69;;;-2.36;67.48
11212;BME280;5663;50.864;12.096;2023-01-29T06:16:18;100474.69;;;-2.36;67.33
11212;BME280;5663;50.864;12.096;2023-01-29T06:18:48;100472.97;;;-2.37;67.40
11212;BME280;5663;50.864;12.096;2023-01-29T06:21:19;100472.97;;;-2.39;67.33
11212;BME280;5663;50.864;12.096;2023-01-29T06:23:54;100473.69;;;-2.44;67.21
11212;BME280;5663;50.864;12.096;2023-01-29T06:26:23;100483.91;;;-2.43;67.21
11212;BME280;5663;50.864;12.096;2023-01-29T06:28:53;100479.59;;;-2.47;67.44
11212;BME280;5663;50.864;12.096;2023-01-29T06:31:22;100492.41;;;-2.42;67.37
11212;BME280;5663;50.864;12.096;2023-01-29T06:33:51;100488.97;;;-2.44;67.36
11212;BME280;5663;50.864;12.096;2023-01-29T06:36:21;100483.94;;;-2.41;67.13
11212;BME280;5663;50.864;12.096;2023-01-29T06:39:00;100478.91;;;-2.38;67.19
11212;BME280;5663;50.864;12.096;2023-01-29T06:41:29;100481.53;;;-2.35;67.13
11212;BME280;5663;50.864;12.096;2023-01-29T06:44:00;100479.00;;;-2.34;67.19
11212;BME280;5663;50.864;12.096;2023-01-29T06:46:29;100484.16;;;-2.31;67.08
11212;BME280;5663;50.864;12.096;2023-01-29T06:48:59;100476.47;;;-2.32;66.85
11212;BME280;5663;50.864;12.096;2023-01-29T06:51:29;100484.09;;;-2.32;66.79
11212;BME280;5663;50.864;12.096;2023-01-29T06:54:02;100487.56;;;-2.30;67.03
11212;BME280;5663;50.864;12.096;2023-01-29T06:56:33;100493.50;;;-2.30;66.93
11212;BME280;5663;50.864;12.096;2023-01-29T06:59:03;100498.59;;;-2.31;66.89
11212;BME280;5663;50.864;12.096;2023-01-29T07:01:32;100520.63;;;-2.32;66.93
11212;BME280;5663;50.864;12.096;2023-01-29T07:04:03;100527.47;;;-2.31;66.93
11212;BME280;5663;50.864;12.096;2023-01-29T07:06:34;100493.94;;;-2.51;66.84
11212;BME280;5663;50.864;12.096;2023-01-29T07:09:07;100541.88;;;-2.31;66.85
11212;BME280;5663;50.864;12.096;2023-01-29T07:11:36;100541.88;;;-2.31;67.01
11212;BME280;5663;50.864;12.096;2023-01-29T07:14:06;100542.75;;;-2.31;67.05
11212;BME280;5663;50.864;12.096;2023-01-29T07:16:34;100551.25;;;-2.29;66.97
11212;BME280;5663;50.864;12.096;2023-01-29T07:19:04;100548.69;;;-2.30;66.82
11212;BME280;5663;50.864;12.096;2023-01-29T07:21:34;100519.47;;;-2.48;66.75
11212;BME280;5663;50.864;12.096;2023-01-29T07:24:07;100557.97;;;-2.34;66.62
11212;BME280;5663;50.864;12.096;2023-01-29T07:26:37;100566.47;;;-2.32;66.87
11212;BME280;5663;50.864;12.096;2023-01-29T07:29:07;100563.06;;;-2.32;66.89
11212;BME280;5663;50.864;12.096;2023-01-29T07:31:37;100563.97;;;-2.30;66.83
11212;BME280;5663;50.864;12.096;2023-01-29T07:34:07;100573.34;;;-2.29;67.00
11212;BME280;5663;50.864;12.096;2023-01-29T07:36:36;100575.94;;;-2.26;67.01
11212;BME280;5663;50.864;12.096;2023-01-29T07:39:09;100578.56;;;-2.23;66.98
11212;BME280;5663;50.864;12.096;2023-01-29T07:41:38;100579.50;;;-2.18;66.98
11212;BME280;5663;50.864;12.096;2023-01-29T07:44:08;100575.34;;;-2.13;67.07
11212;BME280;5663;50.864;12.096;2023-01-29T07:46:38;100589.03;;;-2.08;67.12
11212;BME280;5663;50.864;12.096;2023-01-29T07:49:08;100583.25;;;-2.01;67.06
11212;BME280;5663;50.864;12.096;2023-01-29T07:51:37;100585.94;;;-1.93;67.29
11212;BME280;5663;50.864;12.096;2023-01-29T07:54:10;100578.50;;;-1.82;67.30
11212;BME280;5663;50.864;12.096;2023-01-29T07:56:39;100577.03;;;-1.71;67.15
11212;BME280;5663;50.864;12.096;2023-01-29T07:59:09;100577.19;;;-1.60;66.95
11212;BME280;5663;50.864;12.096;2023-01-29T08:01:39;100569.75;;;-1.48;66.93
11212;BME280;5663;50.864;12.096;2023-01-29T08:04:08;100573.28;;;-1.40;66.89
11212;BME280;5663;50.864;12.096;2023-01-29T08:06:38;100522.91;;;-1.55;66.74
11212;BME280;5663;50.864;12.096;2023-01-29T08:09:10;100559.97;;;-1.23;66.83
11212;BME280;5663;50.864;12.096;2023-01-29T08:11:40;100561.78;;;-1.16;66.81
11212;BME280;5663;50.864;12.096;2023-01-29T08:14:09;100554.22;;;-1.09;66.71
11212;BME280;5663;50.864;12.096;2023-01-29T08:16:39;100553.50;;;-1.03;66.29
11212;BME280;5663;50.864;12.096;2023-01-29T08:19:08;100545.94;;;-0.95;66.31
11212;BME280;5663;50.864;12.096;2023-01-29T08:21:38;100536.69;;;-0.87;66.64
11212;BME280;5663;50.864;12.096;2023-01-29T08:24:11;100540.22;;;-0.79;66.40
11212;BME280;5663;50.864;12.096;2023-01-29T08:26:41;100518.84;;;-0.87;66.40
11212;BME280;5663;50.864;12.096;2023-01-29T08:29:11;100550.66;;;-0.64;66.42
11212;BME280;5663;50.864;12.096;2023-01-29T09:31:37;100546.78;;;0.46;65.12
11212;BME280;5663;50.864;12.096;2023-01-29T09:34:07;100524.53;;;0.39;64.87
11212;BME280;5663;50.864;12.096;2023-01-29T09:36:37;100546.03;;;0.60;64.88
11212;BME280;5663;50.864;12.096;2023-01-29T09:39:07;100546.13;;;0.69;64.78
11212;BME280;5663;50.864;12.096;2023-01-29T09:41:45;100530.81;;;0.78;64.98
11212;BME280;5663;50.864;12.096;2023-01-29T09:44:27;100529.19;;;0.86;64.41
11212;BME280;5663;50.864;12.096;2023-01-29T09:47:07;100523.22;;;0.90;64.32
11212;BME280;5663;50.864;12.096;2023-01-29T09:49:43;100498.44;;;0.80;64.64
11212;BME280;5663;50.864;12.096;2023-01-29T09:52:18;100515.63;;;1.03;64.53
11212;BME280;5663;50.864;12.096;2023-01-29T09:54:56;100509.72;;;1.13;64.35
11212;BME280;5663;50.864;12.096;2023-01-29T09:57:37;100471.28;;;1.08;64.12
11212;BME280;5663;50.864;12.096;2023-01-29T10:00:14;100493.59;;;1.29;64.07
11212;BME280;5663;50.864;12.096;2023-01-29T10:03:03;100473.03;;;1.23;63.97
11212;BME280;5663;50.864;12.096;2023-01-29T10:05:48;100491.97;;;1.50;63.94
11212;BME280;5663;50.864;12.096;2023-01-29T10:08:57;100494.56;;;1.62;63.62
11212;BME280;5663;50.864;12.096;2023-01-29T10:11:37;100484.34;;;1.71;63.79
11212;BME280;5663;50.864;12.096;2023-01-29T10:14:16;100481.81;;;1.80;63.50
11212;BME280;5663;50.864;12.096;2023-01-29T10:16:56;100473.25;;;1.87;63.37
11212;BME280;5663;50.864;12.096;2023-01-29T10:19:54;100467.34;;;2.04;63.19
11212;BME280;5663;50.864;12.096;2023-01-29T10:22:47;100474.19;;;2.17;63.17
11212;BME280;5663;50.864;12.096;2023-01-29T10:25:20;100459.63;;;2.22;62.68
11212;BME280;5663;50.864;12.096;2023-01-29T10:27:52;100459.66;;;2.34;62.45
11212;BME280;5663;50.864;12.096;2023-01-29T10:30:28;100479.31;;;2.46;62.62
11212;BME280;5663;50.864;12.096;2023-01-29T12:36:36;100246.69;;;3.68;59.79
11212;BME280;5663;50.864;12.096;2023-01-29T12:39:08;100250.06;;;3.70;59.69
11212;BME280;5663;50.864;12.096;2023-01-29T12:41:44;100244.03;;;3.74;59.89
11212;BME280;5663;50.864;12.096;2023-01-29T12:44:18;100244.88;;;3.79;59.74
11212;BME280;5663;50.864;12.096;2023-01-29T12:46:52;100237.03;;;3.87;59.66
11212;BME280;5663;50.864;12.096;2023-01-29T12:49:26;100239.56;;;3.94;59.62
11212;BME280;5663;50.864;12.096;2023-01-29T12:52:03;100226.66;;;3.99;59.67
11212;BME280;5663;50.864;12.096;2023-01-29T12:54:38;100192.47;;;3.88;59.31
11212;BME280;5663;50.864;12.096;2023-01-29T12:57:13;100225.66;;;4.11;59.47
11212;BME280;5663;50.864;12.096;2023-01-29T12:59:52;100212.72;;;4.17;59.86
11212;BME280;5663;50.864;12.096;2023-01-29T13:02:31;100204.97;;;4.20;59.13
11212;BME280;5663;50.864;12.096;2023-01-29T13:05:04;100204.06;;;4.23;59.35
11212;BME280;5663;50.864;12.096;2023-01-29T13:07:46;100213.47;;;4.28;59.67
11212;BME280;5663;50.864;12.096;2023-01-29T13:10:22;100208.28;;;4.31;59.45
11212;BME280;5663;50.864;12.096;2023-01-29T13:12:57;100213.44;;;4.30;59.18
11212;BME280;5663;50.864;12.096;2023-01-29T13:15:29;100182.72;;;4.16;59.31
11212;BME280;5663;50.864;12.096;2023-01-29T13:20:59;100207.34;;;4.37;59.13
11212;BME280;5663;50.864;12.096;2023-01-29T13:23:35;100209.88;;;4.38;59.62
11212;BME280;5663;50.864;12.096;2023-01-29T13:26:06;100177.47;;;4.22;59.55
11212;BME280;5663;50.864;12.096;2023-01-29T13:28:36;100210.78;;;4.39;59.28
11212;BME280;5663;50.864;12.096;2023-01-29T13:31:18;100192.75;;;4.37;59.32
11212;BME280;5663;50.864;12.096;2023-01-29T13:33:54;100203.91;;;4.39;59.13
11212;BME280;5663;50.864;12.096;2023-01-29T13:36:28;100204.81;;;4.35;59.16
11212;BME280;5663;50.864;12.096;2023-01-29T13:39:21;100194.56;;;4.29;59.35
11212;BME280;5663;50.864;12.096;2023-01-29T13:41:52;100194.63;;;4.25;59.30
11212;BME280;5663;50.864;12.096;2023-01-29T13:44:25;100196.31;;;4.27;59.35
11212;BME280;5663;50.864;12.096;2023-01-29T13:46:58;100191.19;;;4.24;59.79
11212;BME280;5663;50.864;12.096;2023-01-29T13:49:33;100159.69;;;4.02;59.86
11212;BME280;5663;50.864;12.096;2023-01-29T13:52:23;100176.69;;;4.17;59.40
11212;BME280;5663;50.864;12.096;2023-01-29T13:55:00;100177.59;;;4.13;59.56
11212;BME280;5663;50.864;12.096;2023-01-29T13:57:48;100181.06;;;4.09;59.63
11212;BME280;5663;50.864;12.096;2023-01-29T14:00:48;100180.34;;;3.99;59.58
11212;BME280;5663;50.864;12.096;2023-01-29T14:03:52;100192.31;;;4.02;59.91
11212;BME280;5663;50.864;12.096;2023-01-29T14:06:45;100182.94;;;3.96;59.51
11212;BME280;5663;50.864;12.096;2023-01-29T14:12:36;100173.59;;;3.87;59.67
11212;BME280;5663;50.864;12.096;2023-01-29T14:20:57;100159.09;;;3.80;60.29
11212;BME280;5663;50.864;12.096;2023-01-29T14:23:30;100151.41;;;3.77;60.30
11212;BME280;5663;50.864;12.096;2023-01-29T14:26:05;100148.84;;;3.74;60.49
11212;BME280;5663;50.864;12.096;2023-01-29T14:28:57;100158.34;;;3.69;59.67
11212;BME280;5663;50.864;12.096;2023-01-29T14:31:39;100148.13;;;3.61;59.88
11212;BME280;5663;50.864;12.096;2023-01-29T14:34:20;100152.44;;;3.58;60.32
11212;BME280;5663;50.864;12.096;2023-01-29T16:37:02;100143.34;;;1.68;62.62
11212;BME280;5663;50.864;12.096;2023-01-29T16:39:35;100122.00;;;1.47;62.72
11212;BME280;5663;50.864;12.096;2023-01-29T16:42:26;100151.91;;;1.64;62.53
11212;BME280;5663;50.864;12.096;2023-01-29T16:44:58;100157.03;;;1.64;62.80
11212;BME280;5663;50.864;12.096;2023-01-29T16:47:33;100145.06;;;1.61;63.04
11212;BME280;5663;50.864;12.096;2023-01-29T16:50:23;100150.19;;;1.63;62.90
11212;BME280;5663;50.864;12.096;2023-01-29T16:53:10;100142.50;;;1.61;62.75
11212;BME280;5663;50.864;12.096;2023-01-29T16:55:42;100141.66;;;1.61;62.62
11212;BME280;5663;50.864;12.096;2023-01-29T16:58:16;100145.09;;;1.57;63.00
11212;BME280;5663;50.864;12.096;2023-01-29T17:00:49;100136.53;;;1.55;62.93
11212;BME280;5663;50.864;12.096;2023-01-29T17:03:24;100149.38;;;1.48;62.94
11212;BME280;5663;50.864;12.096;2023-01-29T17:05:57;100140.81;;;1.43;62.92
11212;BME280;5663;50.864;12.096;2023-01-29T17:08:32;100138.28;;;1.34;63.13
11212;BME280;5663;50.864;12.096;2023-01-29T17:11:03;100150.22;;;1.44;62.95
11212;BME280;5663;50.864;12.096;2023-01-29T17:13:37;100144.25;;;1.41;63.10
11212;BME280;5663;50.864;12.096;2023-01-29T17:16:15;100148.53;;;1.40;63.02
11212;BME280;5663;50.864;12.096;2023-01-29T17:18:48;100146.81;;;1.41;63.07
11212;BME280;5663;50.864;12.096;2023-01-29T17:21:18;100145.97;;;1.36;63.13
11212;BME280;5663;50.864;12.096;2023-01-29T17:23:52;100134.00;;;1.35;63.13
11212;BME280;5663;50.864;12.096;2023-01-29T17:26:22;100145.97;;;1.40;63.18
11212;BME280;5663;50.864;12.096;2023-01-29T17:28:52;100139.97;;;1.38;63.07
11212;BME280;5663;50.864;12.096;2023-01-29T17:31:22;100137.41;;;1.34;62.98
11212;BME280;5663;50.864;12.096;2023-01-29T17:33:51;100143.41;;;1.37;62.92
11212;BME280;5663;50.864;12.096;2023-01-29T17:36:21;100145.94;;;1.39;62.99
11212;BME280;5663;50.864;12.096;2023-01-29T17:38:54;100153.66;;;1.34;62.97
11212;BME280;5663;50.864;12.096;2023-01-29T17:41:27;100150.22;;;1.31;63.13
11212;BME280;5663;50.864;12.096;2023-01-29T17:43:59;100151.94;;;1.30;63.19
11212;BME280;5663;50.864;12.096;2023-01-29T17:46:29;100146.81;;;1.30;63.37
11212;BME280;5663;50.864;12.096;2023-01-29T17:48:58;100149.38;;;1.29;63.15
11212;BME280;5663;50.864;12.096;2023-01-29T17:51:29;100143.41;;;1.25;63.05
11212;BME280;5663;50.864;12.096;2023-01-29T17:54:03;100145.97;;;1.25;63.13
11212;BME280;5663;50.864;12.096;2023-01-29T17:56:32;100145.09;;;1.26;63.03
11212;BME280;5663;50.864;12.096;2023-01-29T17:59:11;100138.28;;;1.25;63.31
11212;BME280;5663;50.864;12.096;2023-01-29T18:01:41;100137.41;;;1.23;63.26
11212;BME280;5663;50.864;12.096;2023-01-29T18:04:11;100136.59;;;1.21;63.20
11212;BME280;5663;50.864;12.096;2023-01-29T18:06:42;100129.75;;;1.18;62.93
11212;BME280;5663;50.864;12.096;2023-01-29T18:09:21;100137.44;;;1.11;63.20
11212;BME280;5663;50.864;12.096;2023-01-29T18:11:52;100127.19;;;1.05;63.07
11212;BME280;5663;50.864;12.096;2023-01-29T18:14:24;100129.75;;;0.98;62.98
11212;BME280;5663;50.864;12.096;2023-01-29T18:16:54;100127.19;;;0.92;63.06
11212;BME280;5663;50.864;12.096;2023-01-29T18:19:24;100118.66;;;0.86;63.06
11212;BME280;5663;50.864;12.096;2023-01-29T18:21:56;100117.81;;;0.85;62.88
11212;BME280;5663;50.864;12.096;2023-01-29T18:24:29;100111.84;;;0.80;63.14
11212;BME280;5663;50.864;12.096;2023-01-29T18:27:01;100104.13;;;0.74;63.21
11212;BME280;5663;50.864;12.096;2023-01-29T18:29:30;100093.91;;;0.65;63.40
11212;BME280;5663;50.864;12.096;2023-01-29T18:32:00;100106.69;;;0.63;63.36
11212;BME280;5663;50.864;12.096;2023-01-29T18:34:30;100097.28;;;0.58;63.56
11212;BME280;5663;50.864;12.096;2023-01-29T18:37:00;100083.66;;;0.53;63.27
11212;BME280;5663;50.864;12.096;2023-01-29T19:39:45;99982.13;;;0.10;63.95
11212;BME280;5663;50.864;12.096;2023-01-29T19:42:15;99981.28;;;0.10;63.76
11212;BME280;5663;50.864;12.096;2023-01-29T19:44:45;99986.38;;;0.07;63.95
11212;BME280;5663;50.864;12.096;2023-01-29T19:47:16;99984.69;;;0.06;63.67
11212;BME280;5663;50.864;12.096;2023-01-29T19:49:45;99983.81;;;0.02;64.07
11212;BME280;5663;50.864;12.096;2023-01-29T19:52:15;99982.97;;;0.02;64.14
11212;BME280;5663;50.864;12.096;2023-01-29T19:55:09;99982.94;;;-0.02;64.26
11212;BME280;5663;50.864;12.096;2023-01-29T19:57:38;99978.69;;;-0.06;63.84
11212;BME280;5663;50.864;12.096;2023-01-29T20:00:09;99985.50;;;-0.08;63.99
11212;BME280;5663;50.864;12.096;2023-01-29T20:02:40;99983.78;;;-0.10;64.20
11212;BME280;5663;50.864;12.096;2023-01-29T20:05:10;99984.63;;;-0.16;64.24
11212;BME280;5663;50.864;12.096;2023-01-29T20:07:43;99984.63;;;-0.16;64.03
11212;BME280;5663;50.864;12.096;2023-01-29T20:10:20;99979.53;;;-0.19;63.96
11212;BME280;5663;50.864;12.096;2023-01-29T20:12:50;99957.31;;;-0.37;64.25
11212;BME280;5663;50.864;12.096;2023-01-29T20:15:19;99981.19;;;-0.24;63.98
11212;BME280;5663;50.864;12.096;2023-01-29T20:17:49;99979.50;;;-0.27;64.19
11212;BME280;5663;50.864;12.096;2023-01-29T20:20:18;99966.69;;;-0.30;64.13
11212;BME280;5663;50.864;12.096;2023-01-29T20:22:48;99959.03;;;-0.31;64.19
11212;BME280;5663;50.864;12.096;2023-01-29T20:25:29;99961.59;;;-0.34;64.45
11212;BME280;5663;50.864;12.096;2023-01-29T20:28:00;99942.81;;;-0.50;64.24
11212;BME280;5663;50.864;12.096;2023-01-29T20:30:31;99967.53;;;-0.40;64.22
11212;BME280;5663;50.864;12.096;2023-01-29T20:33:01;99969.22;;;-0.43;64.52
11212;BME280;5663;50.864;12.096;2023-01-29T20:35:32;99963.25;;;-0.44;64.48
11212;BME280;5663;50.864;12.096;2023-01-29T20:38:02;99953.03;;;-0.50;64.50
11212;BME280;5663;50.864;12.096;2023-01-29T22:40:51;99699.25;;;-1.04;65.67
11212;BME280;5663;50.864;12.096;2023-01-29T22:43:21;99687.34;;;-1.08;65.71
11212;BME280;5663;50.864;12.096;2023-01-29T22:45:51;99693.31;;;-1.02;65.55
11212;BME280;5663;50.864;12.096;2023-01-29T22:48:22;99674.63;;;-1.04;65.64
11212;BME280;5663;50.864;12.096;2023-01-29T22:50:55;99669.50;;;-1.04;66.11
11212;BME280;5663;50.864;12.096;2023-01-29T22:53:34;99665.25;;;-0.98;66.17
11212;BME280;5663;50.864;12.096;2023-01-29T22:56:17;99660.97;;;-0.96;66.12
11212;BME280;5663;50.864;12.096;2023-01-29T22:58:50;99629.53;;;-1.08;66.14
11212;BME280;5663;50.864;12.096;2023-01-29T23:01:22;99645.69;;;-0.93;65.87
11212;BME280;5663;50.864;12.096;2023-01-29T23:03:52;99648.22;;;-0.92;66.34
11212;BME280;5663;50.864;12.096;2023-01-29T23:06:23;99644.00;;;-0.91;66.17
11212;BME280;5663;50.864;12.096;2023-01-29T23:08:54;99645.69;;;-0.90;66.43
11212;BME280;5663;50.864;12.096;2023-01-29T23:11:28;99644.81;;;-0.85;66.17
11212;BME280;5663;50.864;12.096;2023-01-29T23:13:58;99611.66;;;-0.98;66.50
11212;BME280;5663;50.864;12.096;2023-01-29T23:16:30;99613.34;;;-0.94;66.08
11212;BME280;5663;50.864;12.096;2023-01-29T23:19:01;99625.25;;;-0.80;66.29
11212;BME280;5663;50.864;12.096;2023-01-29T23:21:31;99629.50;;;-0.72;66.09
11212;BME280;5663;50.864;12.096;2023-01-29T23:24:05;99635.44;;;-0.69;65.83
11212;BME280;5663;50.864;12.096;2023-01-29T23:26:38;99625.22;;;-0.69;66.23
11212;BME280;5663;50.864;12.096;2023-01-29T23:29:25;99609.91;;;-0.69;66.12
11212;BME280;5663;50.864;12.096;2023-01-29T23:31:55;99615.88;;;-0.67;66.03
11212;BME280;5663;50.864;12.096;2023-01-29T23:34:36;99615.00;;;-0.66;66.10
11212;BME280;5663;50.864;12.096;2023-01-29T23:37:06;99612.44;;;-0.64;66.22
11212;BME280;5663;50.864;12.096;2023-01-29T23:39:35;99611.59;;;-0.62;66.34
